createdAt,value
2023-05-05T00:01:49.265Z,67.30
2023-05-05T00:04:17.713Z,67.50
2023-05-05T00:06:44.779Z,67.30
2023-05-05T00:09:11.539Z,67.30
2023-05-05T00:11:38.551Z,66.70
2023-05-05T00:14:05.369Z,66.30
2023-05-05T00:16:32.334Z,66.90
2023-05-05T00:19:00.331Z,66.10
2023-05-05T00:21:27.910Z,66.40
2023-05-05T00:23:54.844Z,66.60
2023-05-05T00:26:21.627Z,68.20
2023-05-05T00:28:48.911Z,68.60
2023-05-05T00:31:16.787Z,69.50
2023-05-05T00:33:43.672Z,69.80
2023-05-05T00:36:10.674Z,69.90
2023-05-05T00:38:38.114Z,69.20
2023-05-05T00:41:05.212Z,69.20
2023-05-05T00:43:32.515Z,68.60
2023-05-05T00:46:09.649Z,68.40
2023-05-05T00:48:36.561Z,68.20
2023-05-05T00:51:08.196Z,68.10
2023-05-05T00:53:35.668Z,67.80
2023-05-05T00:56:02.843Z,67.70
2023-05-05T00:58:30.477Z,67.50
2023-05-05T01:00:57.354Z,67.60
2023-05-05T01:03:24.209Z,67.80
2023-05-05T01:06:03.074Z,68.10
2023-05-05T01:08:39.454Z,69.10
2023-05-05T01:11:37.943Z,69.30
2023-05-05T01:14:16.366Z,69.30
2023-05-05T01:16:58.988Z,69.50
2023-05-05T01:20:01.223Z,69.70
2023-05-05T01:22:42.648Z,70.10
2023-05-05T01:25:30.423Z,70.60
2023-05-05T01:28:00.225Z,71.70
2023-05-05T01:31:21.957Z,72.20
2023-05-05T01:33:54.965Z,72.50
2023-05-05T01:36:31.570Z,72.00
2023-05-05T01:39:02.139Z,71.90
2023-05-05T01:41:36.790Z,72.00
2023-05-05T01:44:06.042Z,72.20
2023-05-05T01:46:35.526Z,72.60
2023-05-05T01:49:02.938Z,73.00
2023-05-05T01:51:30.375Z,73.00
2023-05-05T01:53:59.905Z,73.10
2023-05-05T01:56:28.203Z,73.10
2023-05-05T01:58:56.550Z,73.40
2023-05-05T02:01:25.963Z,74.30
2023-05-05T02:03:57.220Z,74.00
2023-05-05T02:06:26.574Z,73.80
2023-05-05T02:08:54.938Z,73.60
2023-05-05T02:11:21.892Z,73.30
2023-05-05T02:13:50.869Z,73.10
2023-05-05T02:16:19.746Z,73.20
2023-05-05T02:18:48.037Z,73.10
2023-05-05T02:21:18.072Z,73.00
2023-05-05T02:23:51.556Z,73.80
2023-05-05T02:26:21.734Z,74.40
2023-05-05T02:29:10.473Z,74.60
2023-05-05T02:31:44.287Z,75.00
2023-05-05T02:34:13.514Z,74.70
2023-05-05T02:36:42.479Z,74.60
2023-05-05T02:39:27.478Z,74.70
2023-05-05T02:41:57.276Z,74.50
2023-05-05T02:44:26.058Z,74.30
2023-05-05T02:46:54.749Z,74.50
2023-05-05T02:49:21.938Z,74.50
2023-05-05T02:51:48.944Z,74.50
2023-05-05T02:54:16.026Z,74.60
2023-05-05T02:56:51.034Z,74.60
2023-05-05T02:59:42.044Z,74.90
2023-05-05T03:02:18.032Z,75.50
2023-05-05T03:04:56.466Z,76.00
2023-05-05T03:07:31.344Z,76.10
2023-05-05T03:10:08.704Z,75.70
2023-05-05T03:12:56.288Z,74.70
2023-05-05T03:15:30.656Z,73.40
2023-05-05T03:17:59.360Z,73.10
2023-05-05T03:20:26.770Z,73.20
2023-05-05T03:22:54.833Z,72.60
2023-05-05T03:25:22.234Z,72.40
2023-05-05T03:27:49.026Z,72.30
2023-05-05T03:30:15.838Z,71.90
2023-05-05T03:32:42.664Z,71.20
2023-05-05T03:35:09.889Z,70.90
2023-05-05T03:37:36.656Z,70.80
2023-05-05T03:40:03.919Z,71.00
2023-05-05T03:42:30.780Z,70.90
2023-05-05T03:44:57.604Z,70.70
2023-05-05T03:47:24.748Z,70.60
2023-05-05T03:49:51.554Z,70.30
2023-05-05T03:52:18.438Z,70.00
2023-05-05T03:54:46.198Z,69.90
2023-05-05T03:57:12.988Z,69.90
2023-05-05T03:59:39.744Z,70.40
2023-05-05T04:02:06.645Z,70.50
2023-05-05T04:04:33.505Z,70.70
2023-05-05T04:07:00.581Z,71.00
2023-05-05T04:09:27.369Z,71.10
2023-05-05T04:11:54.124Z,70.60
2023-05-05T04:14:21.431Z,70.60
2023-05-05T04:16:48.259Z,70.60
2023-05-05T04:19:15.037Z,70.60
2023-05-05T04:21:41.861Z,70.70
2023-05-05T04:24:08.743Z,71.00
2023-05-05T04:26:35.960Z,71.20
2023-05-05T04:29:02.733Z,71.40
2023-05-05T04:31:29.566Z,70.50
2023-05-05T04:33:56.502Z,70.20
2023-05-05T04:36:23.295Z,69.90
2023-05-05T04:38:50.124Z,69.50
2023-05-05T04:41:16.998Z,69.80
2023-05-05T04:43:43.800Z,69.50
2023-05-05T04:46:10.780Z,69.70
2023-05-05T04:48:38.566Z,68.70
2023-05-05T04:51:08.540Z,68.50
2023-05-05T04:53:35.334Z,68.00
2023-05-05T04:56:02.641Z,67.80
2023-05-05T04:58:29.411Z,67.50
2023-05-05T05:00:56.606Z,67.70
2023-05-05T05:03:23.608Z,68.20
2023-05-05T05:05:50.601Z,69.00
2023-05-05T05:08:17.759Z,72.20
2023-05-05T05:10:44.952Z,74.40
2023-05-05T05:13:12.854Z,75.20
2023-05-05T05:15:39.872Z,75.40
2023-05-05T05:18:06.763Z,75.70
2023-05-05T05:20:33.641Z,74.70
2023-05-05T05:23:04.448Z,75.60
2023-05-05T05:25:31.340Z,76.20
2023-05-05T05:28:08.884Z,75.90
2023-05-05T05:30:37.524Z,75.40
2023-05-05T05:33:04.288Z,76.10
2023-05-05T05:35:31.586Z,76.90
2023-05-05T05:37:58.471Z,76.80
2023-05-05T05:40:25.434Z,76.40
2023-05-05T05:42:52.234Z,75.30
2023-05-05T05:45:19.001Z,75.10
2023-05-05T05:47:45.918Z,75.30
2023-05-05T05:50:12.828Z,74.90
2023-05-05T05:52:39.588Z,72.90
2023-05-05T05:55:07.721Z,71.60
2023-05-05T05:57:34.535Z,72.30
2023-05-05T06:00:02.165Z,72.60
2023-05-05T06:02:29.277Z,71.60
2023-05-05T06:04:56.071Z,70.00
2023-05-05T06:07:22.827Z,69.30
2023-05-05T06:09:49.687Z,68.90
2023-05-05T06:12:16.492Z,69.60
2023-05-05T06:14:43.373Z,69.40
2023-05-05T06:17:10.237Z,69.20
2023-05-05T06:19:39.758Z,69.40
2023-05-05T06:22:06.675Z,69.10
2023-05-05T06:24:33.600Z,68.80
2023-05-05T06:27:00.462Z,69.10
2023-05-05T06:29:28.127Z,69.10
2023-05-05T06:31:55.347Z,69.10
2023-05-05T06:34:22.196Z,68.30
2023-05-05T06:36:49.027Z,68.20
2023-05-05T06:39:16.239Z,68.10
2023-05-05T06:41:43.158Z,68.50
2023-05-05T06:44:11.338Z,68.70
2023-05-05T06:46:38.172Z,68.10
2023-05-05T06:49:04.997Z,67.50
2023-05-05T06:51:32.047Z,66.70
2023-05-05T06:53:58.791Z,66.20
2023-05-05T06:56:25.608Z,66.00
2023-05-05T06:58:52.498Z,65.80
2023-05-05T07:01:19.412Z,66.70
2023-05-05T07:03:46.486Z,67.00
2023-05-05T07:06:13.321Z,66.90
2023-05-05T07:08:40.068Z,67.00
2023-05-05T07:11:07.137Z,67.60
2023-05-05T07:13:33.883Z,66.40
2023-05-05T07:16:00.886Z,65.00
2023-05-05T07:18:27.750Z,64.30
2023-05-05T07:20:54.569Z,64.30
2023-05-05T07:23:21.373Z,64.70
2023-05-05T07:25:48.484Z,65.50
2023-05-05T07:28:15.529Z,64.70
2023-05-05T07:30:42.340Z,64.90
2023-05-05T07:33:09.197Z,65.10
2023-05-05T07:35:35.993Z,65.60
2023-05-05T07:38:04.086Z,65.00
2023-05-05T07:40:30.878Z,65.20
2023-05-05T07:42:57.820Z,65.50
2023-05-05T07:45:24.730Z,63.70
2023-05-05T07:47:51.578Z,62.30
2023-05-05T07:50:18.657Z,62.50
2023-05-05T07:52:49.933Z,63.00
2023-05-05T07:55:20.881Z,61.70
2023-05-05T07:57:49.696Z,61.80
2023-05-05T08:00:19.349Z,61.00
2023-05-05T08:02:46.485Z,61.00
2023-05-05T08:05:13.558Z,61.60
2023-05-05T08:07:41.634Z,60.50
2023-05-05T08:10:12.662Z,59.80
2023-05-05T08:12:39.744Z,59.20
2023-05-05T08:15:07.244Z,59.80
2023-05-05T08:17:51.145Z,59.80
2023-05-05T08:20:20.303Z,59.70
2023-05-05T08:22:47.977Z,59.50
2023-05-05T08:25:15.161Z,58.70
2023-05-05T08:27:43.076Z,59.10
2023-05-05T08:30:10.807Z,59.60
2023-05-05T08:32:38.472Z,59.30
2023-05-05T08:35:06.756Z,59.40
2023-05-05T08:37:34.278Z,59.70
2023-05-05T08:40:01.099Z,60.30
2023-05-05T08:42:37.839Z,60.00
2023-05-05T08:45:07.808Z,60.00
2023-05-05T08:47:36.749Z,60.80
2023-05-05T08:50:06.008Z,58.70
2023-05-05T08:52:40.387Z,59.60
2023-05-05T08:55:14.329Z,60.00
2023-05-05T08:58:04.218Z,59.40
2023-05-05T09:00:31.576Z,57.80
2023-05-05T09:03:00.222Z,58.50
2023-05-05T09:05:27.536Z,58.90
2023-05-05T09:07:54.477Z,58.70
2023-05-05T09:10:21.529Z,58.80
2023-05-05T09:12:51.201Z,59.40
2023-05-05T09:15:18.240Z,60.00
2023-05-05T09:17:44.999Z,59.00
2023-05-05T09:20:13.592Z,60.10
2023-05-05T09:22:41.602Z,61.00
2023-05-05T09:25:18.431Z,60.80
2023-05-05T09:27:48.072Z,59.10
2023-05-05T09:30:23.886Z,60.50
2023-05-05T09:32:53.409Z,59.10
2023-05-05T09:35:22.093Z,60.60
2023-05-05T09:37:48.958Z,60.70
2023-05-05T09:40:18.124Z,59.60
2023-05-05T09:42:45.272Z,59.60
2023-05-05T09:45:18.553Z,59.40
2023-05-05T09:47:48.866Z,58.50
2023-05-05T09:50:18.840Z,58.80
2023-05-05T09:52:56.119Z,59.00
2023-05-05T09:55:24.128Z,59.50
2023-05-05T09:57:51.258Z,58.40
2023-05-05T10:00:18.323Z,58.40
2023-05-05T10:02:46.381Z,59.20
2023-05-05T10:05:18.080Z,59.80
2023-05-05T10:07:47.533Z,60.00
2023-05-05T10:10:17.069Z,59.20
2023-05-05T10:12:49.972Z,58.90
2023-05-05T10:15:17.142Z,59.10
2023-05-05T10:18:05.062Z,59.00
2023-05-05T10:20:36.305Z,58.90
2023-05-05T10:23:06.982Z,58.90
2023-05-05T10:25:42.148Z,58.70
2023-05-05T10:28:11.829Z,58.70
2023-05-05T10:30:44.287Z,58.40
2023-05-05T10:33:30.384Z,58.90
2023-05-05T10:36:02.400Z,59.50
2023-05-05T10:38:33.265Z,59.40
2023-05-05T10:41:01.529Z,59.30
2023-05-05T10:43:30.778Z,58.20
2023-05-05T10:45:58.646Z,58.90
2023-05-05T10:48:56.809Z,58.90
2023-05-05T10:51:40.632Z,59.40
2023-05-05T10:54:24.767Z,60.90
2023-05-05T10:56:52.427Z,61.10
2023-05-05T10:59:37.392Z,61.60
2023-05-05T11:02:23.948Z,62.90
2023-05-05T11:05:13.300Z,62.40
2023-05-05T11:07:41.121Z,63.50
2023-05-05T11:10:09.171Z,63.60
2023-05-05T11:12:57.930Z,64.70
2023-05-05T11:15:28.046Z,63.60
2023-05-05T11:17:59.281Z,62.80
2023-05-05T11:20:42.039Z,63.60
2023-05-05T11:23:08.779Z,63.30
2023-05-05T11:25:36.283Z,62.40
2023-05-05T11:28:13.455Z,63.00
2023-05-05T11:30:55.727Z,63.60
2023-05-05T11:33:39.237Z,62.10
2023-05-05T11:36:07.485Z,62.10
2023-05-05T11:38:59.740Z,62.50
2023-05-05T11:41:32.687Z,63.70
2023-05-05T11:44:11.757Z,62.80
2023-05-05T11:47:04.424Z,63.30
2023-05-05T11:49:38.515Z,62.40
2023-05-05T11:52:11.203Z,62.50
2023-05-05T11:54:50.458Z,62.50
2023-05-05T11:57:21.572Z,62.30
2023-05-05T11:59:58.528Z,63.50
2023-05-05T12:02:35.204Z,64.60
2023-05-05T12:05:02.787Z,63.50
2023-05-05T12:07:31.584Z,64.40
2023-05-05T12:09:58.941Z,63.50
2023-05-05T12:12:43.633Z,63.60
2023-05-05T12:15:10.755Z,64.40
2023-05-05T12:17:45.017Z,64.80
2023-05-05T12:20:13.213Z,64.70
2023-05-05T12:22:40.521Z,64.00
2023-05-05T12:25:08.620Z,64.70
2023-05-05T12:27:35.904Z,65.40
2023-05-05T12:30:14.567Z,64.50
2023-05-05T12:32:41.820Z,63.60
2023-05-05T12:35:10.225Z,64.00
2023-05-05T12:37:37.205Z,64.60
2023-05-05T12:40:06.312Z,63.80
2023-05-05T12:42:39.164Z,63.70
2023-05-05T12:45:15.927Z,63.60
2023-05-05T12:47:44.991Z,63.50
2023-05-05T12:50:11.949Z,63.60
2023-05-05T12:52:43.044Z,63.40
2023-05-05T12:55:11.292Z,64.20
2023-05-05T12:57:38.601Z,64.50
2023-05-05T13:00:16.263Z,64.60
2023-05-05T13:02:43.343Z,65.30
2023-05-05T13:05:10.701Z,65.00
2023-05-05T13:07:50.276Z,65.20
2023-05-05T13:10:17.078Z,65.20
2023-05-05T13:12:43.963Z,64.80
2023-05-05T13:15:11.558Z,64.00
2023-05-05T13:17:38.369Z,64.00
2023-05-05T13:20:07.159Z,64.40
2023-05-05T13:22:34.018Z,65.00
2023-05-05T13:25:00.775Z,64.30
2023-05-05T13:27:27.696Z,64.50
2023-05-05T13:29:54.439Z,65.00
2023-05-05T13:32:21.348Z,64.90
2023-05-05T13:34:48.231Z,65.40
2023-05-05T13:37:15.038Z,65.30
2023-05-05T13:39:41.856Z,65.20
2023-05-05T13:42:08.710Z,64.30
2023-05-05T13:44:35.761Z,64.10
2023-05-05T13:47:03.519Z,64.40
2023-05-05T13:49:30.265Z,65.00
2023-05-05T13:51:57.302Z,64.50
2023-05-05T13:54:24.087Z,63.90
2023-05-05T13:56:50.983Z,64.90
2023-05-05T13:59:18.154Z,64.60
2023-05-05T14:01:44.922Z,64.50
2023-05-05T14:04:11.813Z,63.90
2023-05-05T14:06:38.634Z,64.30
2023-05-05T14:09:06.401Z,64.20
2023-05-05T14:11:33.405Z,64.50
2023-05-05T14:14:00.209Z,65.20
2023-05-05T14:16:26.986Z,65.30
2023-05-05T14:18:53.847Z,65.00
2023-05-05T14:21:20.665Z,65.70
2023-05-05T14:23:47.662Z,65.70
2023-05-05T14:26:14.765Z,65.10
2023-05-05T14:28:42.298Z,65.20
2023-05-05T14:31:09.165Z,65.10
2023-05-05T14:33:36.014Z,65.10
2023-05-05T14:36:02.837Z,64.80
2023-05-05T14:38:29.735Z,64.40
2023-05-05T14:40:56.568Z,64.80
2023-05-05T14:43:23.311Z,64.60
2023-05-05T14:45:50.211Z,65.10
2023-05-05T14:48:17.511Z,64.20
2023-05-05T14:50:46.337Z,64.30
2023-05-05T14:53:13.146Z,64.40
2023-05-05T14:55:39.905Z,65.40
2023-05-05T14:58:06.841Z,65.00
2023-05-05T15:00:33.861Z,64.60
2023-05-05T15:03:00.949Z,64.40
2023-05-05T15:05:27.781Z,64.40
2023-05-05T15:07:54.518Z,65.20
2023-05-05T15:10:22.182Z,63.60
2023-05-05T15:12:49.257Z,63.80
2023-05-05T15:15:16.230Z,63.50
2023-05-05T15:17:43.258Z,63.90
2023-05-05T15:20:10.500Z,64.30
2023-05-05T15:22:37.346Z,63.80
2023-05-05T15:25:04.480Z,63.60
2023-05-05T15:27:31.854Z,63.60
2023-05-05T15:29:58.664Z,63.60
2023-05-05T15:32:25.599Z,63.00
2023-05-05T15:34:52.493Z,63.10
2023-05-05T15:37:19.232Z,63.10
2023-05-05T15:39:46.016Z,63.30
2023-05-05T15:42:12.844Z,64.20
2023-05-05T15:44:39.616Z,63.90
2023-05-05T15:47:06.928Z,63.50
2023-05-05T15:49:33.738Z,63.50
2023-05-05T15:52:00.833Z,63.50
2023-05-05T15:54:27.620Z,63.40
2023-05-05T15:56:55.033Z,63.40
2023-05-05T15:59:21.981Z,63.40
2023-05-05T16:01:48.993Z,63.00
2023-05-05T16:04:15.892Z,63.40
2023-05-05T16:06:42.779Z,62.90
2023-05-05T16:09:09.716Z,62.60
2023-05-05T16:11:37.465Z,63.60
2023-05-05T16:14:04.392Z,62.70
2023-05-05T16:16:31.290Z,62.80
2023-05-05T16:18:58.088Z,62.80
2023-05-05T16:21:25.654Z,62.70
2023-05-05T16:23:52.478Z,63.00
2023-05-05T16:26:19.535Z,62.90
2023-05-05T16:28:46.287Z,63.40
2023-05-05T16:31:13.558Z,63.40
2023-05-05T16:33:43.861Z,62.90
2023-05-05T16:36:12.381Z,63.00
2023-05-05T16:38:40.520Z,63.40
2023-05-05T16:41:07.733Z,63.50
2023-05-05T16:43:35.958Z,63.60
2023-05-05T16:46:03.941Z,64.00
2023-05-05T16:48:30.804Z,63.80
2023-05-05T16:50:57.914Z,63.60
2023-05-05T16:53:25.371Z,63.60
2023-05-05T16:55:53.223Z,63.60
2023-05-05T16:58:23.233Z,63.90
2023-05-05T17:00:50.906Z,63.60
2023-05-05T17:03:21.364Z,62.80
2023-05-05T17:05:50.254Z,62.60
2023-05-05T17:08:17.497Z,63.00
2023-05-05T17:10:45.464Z,61.90
2023-05-05T17:13:13.999Z,61.90
2023-05-05T17:15:41.707Z,62.00
2023-05-05T17:18:09.190Z,62.40
2023-05-05T17:20:36.555Z,62.60
2023-05-05T17:23:03.374Z,63.10
2023-05-05T17:25:30.259Z,63.30
2023-05-05T17:27:57.216Z,63.80
2023-05-05T17:30:24.117Z,64.00
2023-05-05T17:32:51.229Z,64.30
2023-05-05T17:35:18.330Z,64.30
2023-05-05T17:37:45.212Z,64.20
2023-05-05T17:40:12.389Z,64.30
2023-05-05T17:42:39.255Z,63.30
2023-05-05T17:45:06.604Z,63.40
2023-05-05T17:47:33.591Z,63.50
2023-05-05T17:50:00.738Z,63.50
2023-05-05T17:52:27.560Z,63.70
2023-05-05T17:54:54.353Z,63.80
2023-05-05T17:57:21.374Z,64.30
2023-05-05T17:59:53.633Z,65.00
2023-05-05T18:02:20.885Z,65.40
2023-05-05T18:04:47.979Z,65.70
2023-05-05T18:07:14.903Z,66.20
2023-05-05T18:09:42.347Z,66.40
2023-05-05T18:12:09.226Z,66.70
2023-05-05T18:14:36.244Z,66.60
2023-05-05T18:17:03.419Z,66.50
2023-05-05T18:19:30.376Z,66.50
2023-05-05T18:22:00.000Z,67.30
2023-05-05T18:24:28.103Z,66.80
2023-05-05T18:26:54.957Z,67.00
2023-05-05T18:29:22.347Z,67.30
2023-05-05T18:31:53.328Z,67.60
2023-05-05T18:34:21.015Z,67.80
2023-05-05T18:36:48.293Z,68.10
2023-05-05T18:39:15.491Z,68.50
2023-05-05T18:41:42.328Z,68.60
2023-05-05T18:44:09.694Z,69.00
2023-05-05T18:46:36.607Z,69.40
2023-05-05T18:49:03.993Z,69.50
2023-05-05T18:51:30.807Z,69.50
2023-05-05T18:53:57.720Z,69.80
2023-05-05T18:56:24.625Z,69.90
2023-05-05T18:58:51.524Z,70.00
2023-05-05T19:01:18.580Z,70.10
2023-05-05T19:03:48.621Z,70.40
2023-05-05T19:06:16.531Z,70.50
2023-05-05T19:08:44.222Z,70.90
2023-05-05T19:11:11.327Z,71.10
2023-05-05T19:13:39.581Z,71.20
2023-05-05T19:16:07.519Z,71.30
2023-05-05T19:18:34.526Z,71.50
2023-05-05T19:21:01.725Z,72.20
2023-05-05T19:23:28.516Z,71.60
2023-05-05T19:25:55.463Z,71.80
2023-05-05T19:28:22.245Z,71.90
2023-05-05T19:30:49.033Z,72.00
2023-05-05T19:33:16.245Z,72.20
2023-05-05T19:35:43.723Z,72.10
2023-05-05T19:38:10.966Z,72.20
2023-05-05T19:40:38.745Z,72.20
2023-05-05T19:43:05.594Z,72.60
2023-05-05T19:45:33.696Z,72.60
2023-05-05T19:48:01.476Z,72.90
2023-05-05T19:50:30.248Z,73.00
2023-05-05T19:52:57.238Z,73.30
2023-05-05T19:55:24.526Z,73.40
2023-05-05T19:57:51.331Z,73.50
2023-05-05T20:00:19.692Z,73.60
2023-05-05T20:02:47.388Z,73.60
2023-05-05T20:05:16.346Z,73.40
2023-05-05T20:07:44.363Z,73.80
2023-05-05T20:10:13.365Z,73.80
2023-05-05T20:12:47.619Z,73.80
2023-05-05T20:15:20.302Z,73.90
2023-05-05T20:17:48.134Z,73.80
2023-05-05T20:20:24.177Z,74.20
2023-05-05T20:22:51.186Z,74.20
2023-05-05T20:25:18.058Z,74.30
2023-05-05T20:27:45.866Z,74.00
2023-05-05T20:30:13.225Z,74.30
2023-05-05T20:32:41.518Z,74.40
2023-05-05T20:35:09.145Z,74.70
2023-05-05T20:37:35.932Z,74.40
2023-05-05T20:40:02.782Z,74.50
2023-05-05T20:42:29.887Z,74.40
2023-05-05T20:44:56.825Z,74.90
2023-05-05T20:47:24.286Z,74.30
2023-05-05T20:49:52.557Z,74.40
2023-05-05T20:52:19.867Z,74.60
2023-05-05T20:54:46.642Z,74.60
2023-05-05T20:57:13.564Z,74.70
2023-05-05T20:59:40.343Z,74.70
2023-05-05T21:02:07.817Z,75.00
2023-05-05T21:04:34.792Z,75.10
2023-05-05T21:07:01.649Z,75.30
2023-05-05T21:09:28.703Z,75.60
2023-05-05T21:11:55.568Z,75.70
2023-05-05T21:14:22.420Z,75.80
2023-05-05T21:16:49.290Z,75.90
2023-05-05T21:19:16.503Z,75.80
2023-05-05T21:21:43.296Z,75.80
2023-05-05T21:24:10.589Z,76.00
2023-05-05T21:26:37.523Z,75.90
2023-05-05T21:29:04.444Z,75.90
2023-05-05T21:31:31.331Z,76.00
2023-05-05T21:33:58.120Z,75.80
2023-05-05T21:36:25.063Z,76.20
2023-05-05T21:38:55.336Z,76.10
2023-05-05T21:41:22.993Z,76.20
2023-05-05T21:43:49.762Z,76.30
2023-05-05T21:46:19.326Z,76.20
2023-05-05T21:48:47.365Z,76.40
2023-05-05T21:51:14.230Z,76.60
2023-05-05T21:53:41.152Z,76.50
2023-05-05T21:56:08.603Z,76.60
2023-05-05T21:58:35.736Z,76.70
2023-05-05T22:01:02.672Z,76.70
2023-05-05T22:03:29.577Z,76.90
2023-05-05T22:05:56.398Z,76.90
2023-05-05T22:08:23.288Z,77.00
2023-05-05T22:10:50.035Z,77.10
2023-05-05T22:13:17.013Z,77.20
2023-05-05T22:15:47.047Z,77.30
2023-05-05T22:18:14.933Z,77.20
2023-05-05T22:20:42.264Z,77.40
2023-05-05T22:23:09.138Z,77.50
2023-05-05T22:25:35.908Z,77.60
2023-05-05T22:28:02.787Z,77.70
2023-05-05T22:30:29.709Z,77.80
2023-05-05T22:32:56.763Z,77.70
2023-05-05T22:35:23.609Z,77.80
2023-05-05T22:37:50.545Z,77.80
2023-05-05T22:40:17.464Z,77.80
2023-05-05T22:42:44.444Z,78.70
2023-05-05T22:45:11.868Z,78.10
2023-05-05T22:47:38.880Z,78.40
2023-05-05T22:50:07.599Z,78.60
2023-05-05T22:52:34.457Z,78.50
2023-05-05T22:55:01.290Z,78.50
2023-05-05T22:57:28.040Z,78.40
2023-05-05T22:59:54.811Z,78.50
2023-05-05T23:02:21.693Z,78.40
2023-05-05T23:04:48.506Z,78.90
2023-05-05T23:07:15.533Z,78.80
2023-05-05T23:09:42.402Z,78.50
2023-05-05T23:12:09.146Z,78.80
2023-05-05T23:14:36.322Z,78.70
2023-05-05T23:17:03.250Z,78.70
2023-05-05T23:19:32.500Z,78.90
2023-05-05T23:22:00.120Z,78.70
2023-05-05T23:24:27.816Z,78.90
2023-05-05T23:26:56.233Z,79.10
2023-05-05T23:29:23.005Z,79.30
2023-05-05T23:31:49.844Z,79.60
2023-05-05T23:34:16.652Z,79.70
2023-05-05T23:36:43.650Z,80.00
2023-05-05T23:39:10.455Z,80.30
2023-05-05T23:41:37.236Z,80.50
2023-05-05T23:44:04.032Z,80.70
2023-05-05T23:46:30.983Z,80.90
2023-05-05T23:48:57.820Z,81.10
2023-05-05T23:51:25.110Z,81.10
2023-05-05T23:53:51.940Z,81.40
2023-05-05T23:56:18.800Z,81.40
2023-05-05T23:58:45.602Z,81.60
